»·PEaware :: N313N KLGB-KSBP

N313N :: KLGB-KSBP

FLIGHT INFORMATION

Flight Status: Arrived
Operator: Privately registered:
United States
More flights under this callsign
Pilot: Damien O. (2415)
Aircraft: GULFSTREAM G-1159C GULFSTREAM 4
(GLF4)
More flights by this aircraft type
Origin: KLGB Long Beach
United States
Destination: KSBP San Luis Co Regl
United States
More flights between these airports :: More routes between these airports
Route: +LAX VTU RZS
File this flight plan on PilotEdge
Remarks:
Altitude:
(Current/Filed)
220ft
Speed:
(Current/Filed)
330kts
Departed: 09-Feb-19 05:41 PM
Arrived: 09-Feb-19 06:24 PM
Distance/Time
Traveled:
150nm/0:43
Distance/Time
To Go:
Arrived

Flight Plot

Page will automatically refresh every two minutes.

Flight plan parsing failed; only flown route is shown


Map Options




Map Legend


Flown Route
Filed Route
Departure Airport
Arrival Airport
Navaid (VOR, NDB)
Fix

Horizontal Profiles

Position Reports

Time Latitude Longitude Heading Altitude Ground
Speed
09-Feb-19 17:17 33.816961 -118.146185 90 51ft 0kts
09-Feb-19 17:18 33.816961 -118.146185 90 51ft 0kts
09-Feb-19 17:19 33.816961 -118.146185 90 51ft 0kts
09-Feb-19 17:20 33.816961 -118.146185 90 51ft 0kts
09-Feb-19 17:21 33.816961 -118.146185 90 51ft 0kts
09-Feb-19 17:22 33.816961 -118.146185 90 51ft 0kts
09-Feb-19 17:23 33.816961 -118.146185 90 51ft 0kts
09-Feb-19 17:24 33.816961 -118.146185 90 51ft 0kts
09-Feb-19 17:25 33.816961 -118.146185 90 51ft 0kts
09-Feb-19 17:26 33.816961 -118.146185 90 51ft 0kts
09-Feb-19 17:27 33.816961 -118.146185 90 51ft 0kts
09-Feb-19 17:28 33.816961 -118.146185 90 51ft 0kts
09-Feb-19 17:29 33.816961 -118.146185 90 51ft 0kts
09-Feb-19 17:30 33.816961 -118.146185 90 51ft 0kts
09-Feb-19 17:31 33.816961 -118.146185 90 51ft 0kts
09-Feb-19 17:32 33.816961 -118.146185 90 51ft 0kts
09-Feb-19 17:33 33.816981 -118.146149 42 51ft 2kts
09-Feb-19 17:34 33.816173 -118.147045 172 51ft 35kts
09-Feb-19 17:35 33.811302 -118.141621 136 51ft 32kts
09-Feb-19 17:36 33.807870 -118.137578 162 51ft 0kts
09-Feb-19 17:37 33.807871 -118.137578 162 51ft 0kts
09-Feb-19 17:38 33.807871 -118.137578 162 51ft 0kts
09-Feb-19 17:39 33.807338 -118.137965 244 51ft 12kts
09-Feb-19 17:40 33.817106 -118.150743 313 417ft 192kts
09-Feb-19 17:41 33.839302 -118.180354 295 1712ft 228kts
09-Feb-19 17:42 33.846790 -118.221554 281 3239ft 229kts
09-Feb-19 17:43 33.852480 -118.260105 282 5151ft 144kts
09-Feb-19 17:44 33.854996 -118.299906 280 3440ft 227kts
09-Feb-19 17:45 33.861213 -118.339170 281 3172ft 187kts
09-Feb-19 17:46 33.867579 -118.378140 281 2677ft 182kts
09-Feb-19 17:47 33.875875 -118.427756 282 2783ft 229kts
09-Feb-19 17:48 33.913724 -118.451122 21 3161ft 223kts
09-Feb-19 17:49 33.954869 -118.457082 284 5163ft 229kts
09-Feb-19 17:50 33.968772 -118.512381 288 5871ft 232kts
09-Feb-19 17:51 33.990165 -118.597705 288 5877ft 262kts
09-Feb-19 17:52 34.008949 -118.672172 287 5874ft 262kts
09-Feb-19 17:53 34.026814 -118.743013 287 5867ft 262kts
09-Feb-19 17:54 34.045526 -118.816742 287 7514ft 261kts
09-Feb-19 17:55 34.063747 -118.881333 287 10621ft 271kts
09-Feb-19 17:56 34.088433 -118.958382 287 14316ft 381kts
09-Feb-19 17:57 34.118305 -119.047355 294 18071ft 392kts
09-Feb-19 17:58 34.174451 -119.133763 303 19845ft 409kts
09-Feb-19 17:59 34.234675 -119.223327 303 19850ft 406kts
09-Feb-19 18:00 34.297067 -119.316550 303 18602ft 401kts
09-Feb-19 18:01 34.351439 -119.415407 297 16778ft 389kts
09-Feb-19 18:03 34.401581 -119.514253 297 14962ft 383kts
09-Feb-19 18:04 34.449152 -119.610208 297 13180ft 376kts
09-Feb-19 18:05 34.494361 -119.703510 297 11450ft 372kts
09-Feb-19 18:06 34.537791 -119.792639 297 9783ft 353kts
09-Feb-19 18:07 34.584315 -119.865637 317 8123ft 318kts
09-Feb-19 18:08 34.633618 -119.916841 316 6588ft 296kts
09-Feb-19 18:09 34.677646 -119.963567 316 5843ft 261kts
09-Feb-19 18:10 34.727804 -120.016879 316 5844ft 267kts
09-Feb-19 18:11 34.770540 -120.062365 316 5843ft 268kts
09-Feb-19 18:12 34.812001 -120.106291 316 5838ft 269kts
09-Feb-19 18:13 34.854987 -120.151535 316 5832ft 272kts
09-Feb-19 18:14 34.898505 -120.197128 316 5824ft 276kts
09-Feb-19 18:15 34.947837 -120.250939 312 5819ft 278kts
09-Feb-19 18:16 35.008163 -120.323174 312 5818ft 276kts
09-Feb-19 18:17 35.056395 -120.379776 308 5822ft 200kts
09-Feb-19 18:18 35.094384 -120.431320 308 3979ft 200kts
09-Feb-19 18:19 35.126929 -120.469700 322 3817ft 201kts
09-Feb-19 18:20 35.158961 -120.511094 307 3448ft 208kts
09-Feb-19 18:21 35.187061 -120.551143 312 2816ft 191kts
09-Feb-19 18:21 35.208862 -120.585949 303 1757ft 204kts
09-Feb-19 18:23 35.231870 -120.631378 305 305ft 152kts
09-Feb-19 18:24 35.237644 -120.643156 255 220ft 22kts
09-Feb-19 18:24 35.239162 -120.647284 284 220ft 5kts
09-Feb-19 18:25 35.239165 -120.647302 283 220ft 0kts

Navigation Log

Ident Type
Flight plan parsing failed, navigation log unavailable